Skip to content
You are here: Gozo Weather
Gozo Weather Station for the very latest live weather conditions from Gozo and Malta
 
 TIME   TEMPERATURE   WINDSPEED   DIRECTION   HUMIDITY   BAROMETER   RAINFALL 
8:55 14.7°C (58.5°F) 14.8 kmh (9.2 mph) WNW 61% 1017.0hPa (30.03 inHg) 0.0mm (0.00 in.)
7:55 15.0°C (59.0 °F) 14.8 kmh (9.2 mph) WNW 60% 1017.0hPa (30.03 inHg) 0.0mm (0.00 in.)
6:55 15.4°C (59.7 °F) 20.4 kmh (12.7 mph) WNW 59% 1017.0hPa (30.03 inHg) 0.0mm (0.00 in.)
5:55 15.8°C (60.4 °F) 18.5 kmh (11.5 mph) WNW 58% 1017.0hPa (30.03 inHg) 0.0mm (0.00 in.)
4:55 17.0°C (62.6 °F) 16.7 kmh (10.4 mph) NW 55% 1017.0hPa (30.03 inHg) 0.0mm (0.00 in.)
3:55 17.1°C (62.8 °F) 16.7 kmh (10.4 mph) NW 54% 1018.0hPa (30.06 inHg) 0.0mm (0.00 in.)
2:55 17.6°C (63.7 °F) 13.0 kmh (8.1 mph) NW 53% 1018.0hPa (30.06 inHg) 0.0mm (0.00 in.)
1:55 17.2°C (63.0 °F) 16.7 kmh (10.4 mph) NW 55% 1019.0hPa (30.09 inHg) 0.0mm (0.00 in.)
12:55 16.8°C (62.2 °F) 18.5 kmh (11.5 mph) NW 55% 1019.0hPa (30.09 inHg) 0.0mm (0.00 in.)
11:55 16.2°C (61.2 °F) 16.7 kmh (10.4 mph) NW 55% 1020.0hPa (30.12 inHg) 0.0mm (0.00 in.)
10:55 15.6°C (60.1 °F) 14.8 kmh (9.2 mph) NW 55% 1020.0hPa (30.12 inHg) 0.0mm (0.00 in.)
9:55 14.9°C (58.8 °F) 16.7 kmh (10.4 mph) NW 56% 1019.0hPa (30.09 inHg) 0.0mm (0.00 in.)
8:55 14.4°C (57.9 °F) 13.0 kmh (8.1 mph) NW 57% 1019.0hPa (30.09 inHg) 0.0mm (0.00 in.)
7:52 12.2°C (54.0 °F) 11.1 kmh (6.9 mph) WNW 58% 1019.0hPa (30.09 inHg) 0.0mm (0.00 in.)
6:52 11.8°C (53.2 °F) 0.0 kmh (0.0 mph) WNW 57% 1018.0hPa (30.06 inHg) 0.0mm (0.00 in.)
5:52 11.8°C (53.2 °F) 0.0 kmh (0.0 mph) NW 57% 1018.0hPa (30.06 inHg) 0.0mm (0.00 in.)
4:52 11.9°C (53.4 °F) 0.0 kmh (0.0 mph) NW 56% 1018.0hPa (30.06 inHg) 0.0mm (0.00 in.)
3:52 12.0°C (53.6 °F) 0.0 kmh (0.0 mph) NW 55% 1018.0hPa (30.06 inHg) 0.0mm (0.00 in.)
2:52 12.2°C (54.0 °F) 0.0 kmh (0.0 mph) NW 54% 1019.0hPa (30.09 inHg) 0.0mm (0.00 in.)
1:52 12.4°C (54.3 °F) 0.0 kmh (0.0 mph) NW 53% 1019.0hPa (30.09 inHg) 0.0mm (0.00 in.)
12:52 12.6°C (54.7 °F) 0.0 kmh (0.0 mph) NNW 53% 1019.0hPa (30.09 inHg) 0.0mm (0.00 in.)
11:52 12.8°C (55.0 °F) 0.0 kmh (0.0 mph) NNW 53% 1020.0hPa (30.12 inHg) 0.0mm (0.00 in.)
10:52 13.0°C (55.4 °F) 0.0 kmh (0.0 mph) NNW 52% 1020.0hPa (30.12 inHg) 0.0mm (0.00 in.)
9:52 13.1°C (55.6 °F) 9.3 kmh (5.8 mph) NW 51% 1020.0hPa (30.12 inHg) 0.0mm (0.00 in.)

You need the latest version of Flash Player to view some of our content.


Why not download and install the latest version now?
It will only take you a moment and will ensure that you can view all the latest flash designed websites.

Translate this page

Animated Satellite

Click per aprire http://www.gozo.ws/Animation.php
copyright 2017 EUMETSAT

European Lightning Activity


Please click image for full size

Sponsored Links